createdAt,value
2019-02-19T00:01:04.008Z,94035.23
2019-02-19T00:03:31.816Z,94034.04
2019-02-19T00:05:59.735Z,94029.41
2019-02-19T00:08:27.649Z,94039.16
2019-02-19T00:10:55.614Z,94034.42
2019-02-19T00:13:23.515Z,94038.05
2019-02-19T00:15:51.325Z,94040.95
2019-02-19T00:18:20.059Z,94039.01
2019-02-19T00:20:47.915Z,94036.11
2019-02-19T00:23:15.775Z,94040.87
2019-02-19T00:25:43.631Z,94035.66
2019-02-19T00:28:11.469Z,94036.20
2019-02-19T00:30:39.306Z,94038.97
2019-02-19T00:33:07.167Z,94043.42
2019-02-19T00:35:35.050Z,94040.25
2019-02-19T00:38:02.900Z,94028.41
2019-02-19T00:40:30.800Z,94036.14
2019-02-19T00:42:59.120Z,94050.82
2019-02-19T00:45:26.943Z,94040.34
2019-02-19T00:47:54.818Z,94037.33
2019-02-19T00:50:22.761Z,94035.66
2019-02-19T00:52:50.613Z,94038.73
2019-02-19T00:55:18.426Z,94045.00
2019-02-19T00:57:46.287Z,94046.91
2019-02-19T01:00:14.431Z,94042.92
2019-02-19T01:02:42.234Z,94048.41
2019-02-19T01:05:10.063Z,94050.41
2019-02-19T01:07:37.954Z,94054.38
2019-02-19T01:10:06.051Z,94056.23
2019-02-19T01:12:33.852Z,94050.01
2019-02-19T01:15:01.720Z,94051.69
2019-02-19T01:17:29.581Z,94046.17
2019-02-19T01:19:57.404Z,94055.02
2019-02-19T01:22:25.221Z,94051.95
2019-02-19T01:24:53.060Z,94047.52
2019-02-19T01:27:21.063Z,94052.73
2019-02-19T01:29:48.905Z,94056.80
2019-02-19T01:32:16.754Z,94046.17
2019-02-19T01:34:44.625Z,94049.71
2019-02-19T01:37:12.467Z,94048.07
2019-02-19T01:39:40.331Z,94047.13
2019-02-19T01:42:08.147Z,94047.42
2019-02-19T01:44:35.986Z,94056.14
2019-02-19T01:47:03.797Z,94050.95
2019-02-19T01:49:31.613Z,94054.28
2019-02-19T01:51:59.534Z,94054.20
2019-02-19T01:54:27.371Z,94053.81
2019-02-19T01:56:55.206Z,94056.14
2019-02-19T01:59:23.064Z,94050.27
2019-02-19T02:01:50.911Z,94047.13
2019-02-19T02:04:18.805Z,94054.50
2019-02-19T02:06:46.654Z,94047.25
2019-02-19T02:09:14.508Z,94046.73
2019-02-19T02:11:42.367Z,94046.99
2019-02-19T02:14:10.182Z,94046.44
2019-02-19T02:16:37.998Z,94042.89
2019-02-19T02:19:05.858Z,94041.64
2019-02-19T02:21:33.657Z,94037.45
2019-02-19T02:24:02.371Z,94054.84
2019-02-19T02:26:30.196Z,94041.33
2019-02-19T02:28:58.043Z,94038.66
2019-02-19T02:31:25.858Z,94036.88
2019-02-19T02:33:53.865Z,94044.91
2019-02-19T02:36:21.721Z,94045.21
2019-02-19T02:38:49.512Z,94041.70
2019-02-19T02:41:17.370Z,94042.44
2019-02-19T02:43:45.720Z,94045.25
2019-02-19T02:46:13.590Z,94044.56
2019-02-19T02:48:41.405Z,94044.31
2019-02-19T02:51:09.241Z,94042.92
2019-02-19T02:53:37.120Z,94050.39
2019-02-19T02:56:04.965Z,94045.00
2019-02-19T02:58:32.820Z,94042.27
2019-02-19T03:01:00.677Z,94039.38
2019-02-19T03:03:28.494Z,94037.18
2019-02-19T03:06:23.732Z,94042.91
2019-02-19T03:08:51.688Z,94038.81
2019-02-19T03:11:19.538Z,94043.39
2019-02-19T03:13:47.351Z,94044.38
2019-02-19T03:16:15.199Z,94044.68
2019-02-19T03:18:43.023Z,94048.91
2019-02-19T03:21:10.858Z,94037.42
2019-02-19T03:23:38.759Z,94036.22
2019-02-19T03:26:06.603Z,94042.02
2019-02-19T03:28:34.397Z,94047.77
2019-02-19T03:31:02.248Z,94036.34
2019-02-19T03:33:30.095Z,94041.14
2019-02-19T03:35:57.951Z,94039.01
2019-02-19T03:38:25.769Z,94040.23
2019-02-19T03:40:53.623Z,94041.79
2019-02-19T03:43:21.583Z,94043.91
2019-02-19T03:45:49.429Z,94043.50
2019-02-19T03:48:17.292Z,94051.31
2019-02-19T03:50:45.108Z,94044.49
2019-02-19T03:53:12.988Z,94050.10
2019-02-19T03:55:40.812Z,94053.64
2019-02-19T03:58:08.636Z,94053.20
2019-02-19T04:00:36.662Z,94055.74
2019-02-19T04:03:04.530Z,94062.30
2019-02-19T04:05:32.443Z,94061.34
2019-02-19T04:08:00.287Z,94054.95
2019-02-19T04:10:28.412Z,94066.00
2019-02-19T04:12:56.252Z,94058.63
2019-02-19T04:15:24.078Z,94057.83
2019-02-19T04:17:52.260Z,94062.05
2019-02-19T04:20:20.083Z,94061.25
2019-02-19T04:22:47.927Z,94064.79
2019-02-19T04:25:15.873Z,94061.25
2019-02-19T04:27:43.686Z,94068.88
2019-02-19T04:30:11.509Z,94060.99
2019-02-19T04:32:39.347Z,94067.77
2019-02-19T04:35:07.264Z,94070.65
2019-02-19T04:37:35.194Z,94073.49
2019-02-19T04:40:03.397Z,94070.91
2019-02-19T04:42:31.334Z,94077.31
2019-02-19T04:44:59.254Z,94082.77
2019-02-19T04:47:27.081Z,94075.08
2019-02-19T04:49:54.919Z,94080.38
2019-02-19T04:52:22.731Z,94074.44
2019-02-19T04:54:50.615Z,94075.80
2019-02-19T04:57:18.477Z,94070.50
2019-02-19T04:59:46.333Z,94075.55
2019-02-19T05:02:14.175Z,94077.56
2019-02-19T05:04:42.022Z,94079.05
2019-02-19T05:07:10.116Z,94073.58
2019-02-19T05:09:37.959Z,94077.22
2019-02-19T05:12:05.868Z,94076.28
2019-02-19T05:14:33.683Z,94087.91
2019-02-19T05:17:01.530Z,94084.03
2019-02-19T05:19:29.332Z,94077.85
2019-02-19T05:21:57.195Z,94086.61
2019-02-19T05:24:25.012Z,94092.20
2019-02-19T05:26:52.959Z,94088.61
2019-02-19T05:29:20.772Z,94088.13
2019-02-19T05:31:48.624Z,94090.03
2019-02-19T05:34:16.401Z,94089.92
2019-02-19T05:36:44.278Z,94091.57
2019-02-19T05:39:12.216Z,94091.09
2019-02-19T05:41:40.033Z,94086.02
2019-02-19T05:44:07.875Z,94092.27
2019-02-19T05:46:35.711Z,94086.86
2019-02-19T05:49:03.566Z,94087.33
2019-02-19T05:51:31.406Z,94084.41
2019-02-19T05:53:59.206Z,94079.33
2019-02-19T05:56:26.992Z,94079.47
2019-02-19T05:58:54.883Z,94077.04
2019-02-19T06:01:22.714Z,94076.78
2019-02-19T06:03:50.547Z,94080.45
2019-02-19T06:06:18.416Z,94077.80
2019-02-19T06:08:46.286Z,94077.63
2019-02-19T06:11:14.186Z,94083.30
2019-02-19T06:13:42.110Z,94081.09
2019-02-19T06:16:09.927Z,94084.34
2019-02-19T06:18:37.766Z,94087.04
2019-02-19T06:21:05.626Z,94084.24
2019-02-19T06:23:33.479Z,94089.81
2019-02-19T06:26:01.694Z,94081.75
2019-02-19T06:28:29.527Z,94088.34
2019-02-19T06:30:57.575Z,94093.16
2019-02-19T06:33:25.402Z,94091.24
2019-02-19T06:35:53.212Z,94093.25
2019-02-19T06:38:21.072Z,94095.84
2019-02-19T06:40:48.899Z,94104.52
2019-02-19T06:43:16.744Z,94101.25
2019-02-19T06:45:44.544Z,94101.66
2019-02-19T06:48:12.377Z,94105.92
2019-02-19T06:50:40.211Z,94103.91
2019-02-19T06:53:08.558Z,94108.00
2019-02-19T06:55:36.442Z,94105.57
2019-02-19T06:58:04.254Z,94107.78
2019-02-19T07:00:32.125Z,94110.06
2019-02-19T07:03:22.455Z,94112.66
2019-02-19T07:05:50.266Z,94116.34
2019-02-19T07:08:21.971Z,94114.76
2019-02-19T07:10:49.895Z,94121.39
2019-02-19T07:13:17.737Z,94124.46
2019-02-19T07:15:45.551Z,94117.73
2019-02-19T07:18:13.451Z,94116.87
2019-02-19T07:20:41.259Z,94124.99
2019-02-19T07:23:09.099Z,94125.45
2019-02-19T07:25:36.934Z,94120.70
2019-02-19T07:28:04.754Z,94119.39
2019-02-19T07:30:32.618Z,94115.63
2019-02-19T07:33:00.463Z,94110.97
2019-02-19T07:35:28.310Z,94103.55
2019-02-19T07:37:56.182Z,94102.23
2019-02-19T07:40:24.040Z,94098.21
2019-02-19T07:42:52.227Z,94106.05
2019-02-19T07:45:20.081Z,94109.33
2019-02-19T07:47:47.923Z,94111.22
2019-02-19T07:50:15.792Z,94114.12
2019-02-19T07:52:43.707Z,94114.84
2019-02-19T07:55:11.219Z,94121.81
2019-02-19T07:57:39.186Z,94121.23
2019-02-19T08:00:08.255Z,94126.03
2019-02-19T08:02:36.092Z,94123.06
2019-02-19T08:05:04.607Z,94127.78
2019-02-19T08:07:32.513Z,94124.87
2019-02-19T08:10:00.801Z,94122.32
2019-02-19T08:12:28.735Z,94126.78
2019-02-19T08:14:56.836Z,94130.27
2019-02-19T08:17:32.869Z,94130.55
2019-02-19T08:19:54.727Z,94132.15
2019-02-19T08:22:22.618Z,94123.28
2019-02-19T08:24:50.466Z,94130.56
2019-02-19T08:27:18.439Z,94131.20
2019-02-19T08:29:46.623Z,94139.80
2019-02-19T08:32:14.608Z,94137.16
2019-02-19T08:34:42.540Z,94136.83
2019-02-19T08:37:10.398Z,94137.45
2019-02-19T08:39:38.239Z,94137.06
2019-02-19T08:42:06.080Z,94141.00
2019-02-19T08:44:33.964Z,94134.22
2019-02-19T08:47:01.773Z,94135.38
2019-02-19T08:49:29.641Z,94139.16
2019-02-19T08:51:57.523Z,94136.08
2019-02-19T08:54:25.381Z,94139.47
2019-02-19T08:56:53.398Z,94132.77
2019-02-19T08:59:21.331Z,94131.69
2019-02-19T09:01:49.150Z,94131.94
2019-02-19T09:04:17.031Z,94136.61
2019-02-19T09:06:44.865Z,94138.06
2019-02-19T09:09:12.726Z,94146.97
2019-02-19T09:11:40.553Z,94144.20
2019-02-19T09:14:08.458Z,94141.98
2019-02-19T09:16:36.271Z,94147.02
2019-02-19T09:19:04.123Z,94146.59
2019-02-19T09:21:31.970Z,94143.28
2019-02-19T09:24:09.006Z,94143.38
2019-02-19T09:26:30.028Z,94144.34
2019-02-19T09:28:57.905Z,94144.81
2019-02-19T09:31:25.738Z,94140.20
2019-02-19T09:33:53.657Z,94142.95
2019-02-19T09:36:21.481Z,94158.83
2019-02-19T09:38:49.348Z,94148.09
2019-02-19T09:41:17.206Z,94153.70
2019-02-19T09:43:45.039Z,94151.69
2019-02-19T09:48:46.670Z,94149.01
2019-02-19T09:51:20.911Z,94151.08
2019-02-19T09:53:51.157Z,94141.73
2019-02-19T09:56:18.989Z,94147.69
2019-02-19T09:58:46.849Z,94153.73
2019-02-19T10:01:14.756Z,94151.79
2019-02-19T10:03:42.659Z,94156.91
2019-02-19T10:06:10.534Z,94158.50
2019-02-19T10:08:38.444Z,94158.51
2019-02-19T10:11:06.316Z,94156.05
2019-02-19T10:13:34.181Z,94161.55
2019-02-19T10:16:02.025Z,94167.08
2019-02-19T10:18:29.873Z,94169.47
2019-02-19T10:20:59.672Z,94162.52
2019-02-19T10:23:27.520Z,94169.16
2019-02-19T10:25:55.385Z,94167.08
2019-02-19T10:28:23.283Z,94170.84
2019-02-19T10:30:51.092Z,94179.45
2019-02-19T10:33:18.985Z,94179.28
2019-02-19T10:35:47.099Z,94170.55
2019-02-19T10:38:14.938Z,94169.17
2019-02-19T10:40:42.765Z,94166.87
2019-02-19T10:43:10.638Z,94174.61
2019-02-19T10:45:38.467Z,94174.59
2019-02-19T10:48:06.342Z,94175.39
2019-02-19T10:50:34.201Z,94169.55
2019-02-19T10:53:02.071Z,94181.98
2019-02-19T10:55:29.965Z,94180.00
2019-02-19T10:57:57.852Z,94178.11
2019-02-19T11:00:25.692Z,94179.22
2019-02-19T11:02:53.562Z,94170.94
2019-02-19T11:05:21.408Z,94172.84
2019-02-19T11:07:49.253Z,94176.50
2019-02-19T11:10:17.114Z,94170.18
2019-02-19T11:12:45.017Z,94165.95
2019-02-19T11:15:13.194Z,94167.35
2019-02-19T11:17:41.082Z,94165.58
2019-02-19T11:20:10.489Z,94166.78
2019-02-19T11:22:38.402Z,94168.31
2019-02-19T11:25:09.156Z,94155.94
2019-02-19T11:27:37.051Z,94152.50
2019-02-19T11:30:05.485Z,94156.16
2019-02-19T11:32:33.304Z,94154.34
2019-02-19T11:35:01.189Z,94157.32
2019-02-19T11:37:29.076Z,94155.84
2019-02-19T11:39:56.983Z,94161.41
2019-02-19T11:42:24.863Z,94163.56
2019-02-19T11:44:52.724Z,94156.07
2019-02-19T11:47:26.484Z,94149.20
2019-02-19T11:49:50.373Z,94148.51
2019-02-19T11:52:18.201Z,94151.34
2019-02-19T11:54:46.073Z,94154.34
2019-02-19T11:57:13.963Z,94156.13
2019-02-19T11:59:41.874Z,94150.88
2019-02-19T12:02:13.433Z,94147.77
2019-02-19T12:04:41.333Z,94140.28
2019-02-19T12:07:09.170Z,94139.98
2019-02-19T12:09:37.078Z,94132.05
2019-02-19T12:12:04.925Z,94125.56
2019-02-19T12:14:32.830Z,94125.56
2019-02-19T12:17:00.758Z,94125.28
2019-02-19T12:19:28.641Z,94132.89
2019-02-19T12:21:56.516Z,94135.54
2019-02-19T12:24:24.359Z,94134.00
2019-02-19T12:26:52.195Z,94126.13
2019-02-19T12:29:20.070Z,94119.19
2019-02-19T12:31:47.954Z,94114.03
2019-02-19T12:34:15.821Z,94115.08
2019-02-19T12:36:43.655Z,94116.06
2019-02-19T12:39:11.516Z,94118.00
2019-02-19T12:41:39.403Z,94111.43
2019-02-19T12:44:07.269Z,94109.87
2019-02-19T12:46:35.133Z,94113.02
2019-02-19T12:49:02.963Z,94114.12
2019-02-19T12:51:30.841Z,94115.16
2019-02-19T12:53:58.699Z,94115.84
2019-02-19T12:56:26.535Z,94119.43
2019-02-19T12:58:54.397Z,94120.17
2019-02-19T13:01:22.258Z,94113.38
2019-02-19T13:03:50.083Z,94111.82
2019-02-19T13:06:17.976Z,94105.68
2019-02-19T13:08:45.885Z,94101.98
2019-02-19T13:11:13.771Z,94104.94
2019-02-19T13:13:41.604Z,94098.59
2019-02-19T13:16:09.434Z,94096.52
2019-02-19T13:18:37.612Z,94103.75
2019-02-19T13:21:05.454Z,94100.66
2019-02-19T13:23:33.284Z,94102.30
2019-02-19T13:26:01.127Z,94107.44
2019-02-19T13:28:29.067Z,94099.11
2019-02-19T13:30:57.047Z,94095.13
2019-02-19T13:33:24.893Z,94100.47
2019-02-19T13:35:52.761Z,94100.26
2019-02-19T13:38:20.613Z,94096.61
2019-02-19T13:40:48.482Z,94096.61
2019-02-19T13:43:16.357Z,94101.94
2019-02-19T13:45:44.325Z,94103.81
2019-02-19T13:48:12.184Z,94107.25
2019-02-19T13:50:39.997Z,94100.75
2019-02-19T13:53:15.101Z,94100.36
2019-02-19T13:55:46.294Z,94101.56
2019-02-19T13:58:14.146Z,94106.88
2019-02-19T14:00:43.714Z,94101.91
2019-02-19T14:03:11.616Z,94107.01
2019-02-19T14:05:39.467Z,94114.32
2019-02-19T14:08:14.300Z,94111.69
2019-02-19T14:10:37.166Z,94112.28
2019-02-19T14:13:05.062Z,94112.83
2019-02-19T14:15:58.720Z,94108.27
2019-02-19T14:18:46.192Z,94104.53
2019-02-19T14:21:32.586Z,94103.05
2019-02-19T14:24:20.208Z,94111.05
2019-02-19T14:27:26.012Z,94106.81
2019-02-19T14:30:13.445Z,94112.05
2019-02-19T14:33:03.596Z,94107.97
2019-02-19T14:35:51.057Z,94110.84
2019-02-19T14:38:37.433Z,94102.80
2019-02-19T14:41:24.907Z,94099.17
2019-02-19T14:44:01.179Z,94107.30
2019-02-19T14:46:54.875Z,94111.70
2019-02-19T14:49:46.976Z,94114.56
2019-02-19T14:52:26.379Z,94112.48
2019-02-19T14:55:06.436Z,94107.92
2019-02-19T14:57:52.704Z,94104.33
2019-02-19T15:00:55.353Z,94106.42
2019-02-19T15:03:41.384Z,94113.90
2019-02-19T15:06:17.496Z,94111.65
2019-02-19T15:09:07.586Z,94115.48
2019-02-19T15:11:58.115Z,94113.88
2019-02-19T15:14:46.530Z,94112.84
2019-02-19T15:17:34.109Z,94109.34
2019-02-19T15:20:24.335Z,94116.69
2019-02-19T15:23:27.149Z,94122.95
2019-02-19T15:26:15.096Z,94113.36
2019-02-19T15:29:01.407Z,94112.80
2019-02-19T15:31:40.418Z,94114.56
2019-02-19T15:34:26.812Z,94110.65
2019-02-19T15:37:17.354Z,94107.86
2019-02-19T15:40:03.665Z,94105.34
2019-02-19T15:42:54.240Z,94103.16
2019-02-19T15:45:41.662Z,94099.02
2019-02-19T15:48:44.795Z,94100.91
2019-02-19T15:51:22.001Z,94097.12
2019-02-19T15:54:08.201Z,94110.97
2019-02-19T15:56:54.391Z,94111.85
2019-02-19T15:59:44.970Z,94118.10
2019-02-19T16:02:31.377Z,94116.19
2019-02-19T16:05:09.827Z,94122.23
2019-02-19T16:08:09.223Z,94125.09
2019-02-19T16:10:45.409Z,94122.36
2019-02-19T16:13:27.740Z,94118.34
2019-02-19T16:16:14.207Z,94118.02
2019-02-19T16:18:48.831Z,94121.88
2019-02-19T16:21:31.321Z,94122.57
2019-02-19T16:24:17.890Z,94126.58
2019-02-19T16:27:17.391Z,94130.14
2019-02-19T16:30:03.549Z,94133.37
2019-02-19T16:33:00.244Z,94135.48
2019-02-19T16:35:37.073Z,94125.14
2019-02-19T16:38:20.708Z,94127.62
2019-02-19T16:41:08.154Z,94129.81
2019-02-19T16:43:51.777Z,94130.88
2019-02-19T16:46:45.249Z,94133.86
2019-02-19T16:49:35.584Z,94140.48
2019-02-19T16:52:21.569Z,94141.03
2019-02-19T16:55:11.392Z,94141.38
2019-02-19T17:00:55.878Z,94147.16
2019-02-19T17:03:37.956Z,94147.92
2019-02-19T17:06:21.334Z,94151.38
2019-02-19T17:08:55.603Z,94151.03
2019-02-19T17:11:42.175Z,94149.05
2019-02-19T17:14:33.226Z,94149.31
2019-02-19T17:17:22.229Z,94153.91
2019-02-19T17:20:21.033Z,94158.25
2019-02-19T17:22:59.584Z,94159.48
2019-02-19T17:25:51.569Z,94163.48
2019-02-19T17:28:43.090Z,94167.28
2019-02-19T17:31:39.810Z,94172.80
2019-02-19T17:34:36.165Z,94174.22
2019-02-19T17:37:23.174Z,94176.23
2019-02-19T17:40:13.659Z,94187.20
2019-02-19T17:43:00.023Z,94192.77
2019-02-19T17:45:41.030Z,94194.67
2019-02-19T17:48:19.866Z,94197.34
2019-02-19T17:51:07.387Z,94203.28
2019-02-19T17:53:59.337Z,94205.20
2019-02-19T17:56:55.983Z,94202.92
2019-02-19T17:59:43.838Z,94212.58
2019-02-19T18:02:31.274Z,94216.72
2019-02-19T18:05:18.735Z,94222.28
2019-02-19T18:08:02.499Z,94216.72
2019-02-19T18:10:36.303Z,94221.67
2019-02-19T18:13:33.095Z,94221.34
2019-02-19T18:16:19.209Z,94227.84
2019-02-19T18:18:50.155Z,94225.31
2019-02-19T18:21:18.819Z,94224.02
2019-02-19T18:23:46.813Z,94230.55
2019-02-19T18:26:14.726Z,94237.47
2019-02-19T18:28:42.648Z,94232.89
2019-02-19T18:31:10.955Z,94235.06
2019-02-19T18:33:38.872Z,94235.26
2019-02-19T18:36:06.774Z,94234.27
2019-02-19T18:38:34.639Z,94234.89
2019-02-19T18:41:03.716Z,94233.27
2019-02-19T18:43:31.856Z,94227.37
2019-02-19T18:46:01.297Z,94234.61
2019-02-19T18:48:29.292Z,94236.77
2019-02-19T18:50:58.464Z,94236.16
2019-02-19T18:53:26.933Z,94233.25
2019-02-19T18:55:55.067Z,94235.02
2019-02-19T18:58:22.932Z,94232.11
2019-02-19T19:00:50.851Z,94236.36
2019-02-19T19:03:18.817Z,94229.49
2019-02-19T19:05:46.706Z,94245.52
2019-02-19T19:08:14.611Z,94248.43
2019-02-19T19:10:42.603Z,94245.88
2019-02-19T19:13:10.508Z,94248.20
2019-02-19T19:15:38.383Z,94239.37
2019-02-19T19:18:06.302Z,94228.51
2019-02-19T19:20:34.228Z,94239.09
2019-02-19T19:23:02.094Z,94248.20
2019-02-19T19:27:55.492Z,94231.36
2019-02-19T19:30:23.466Z,94228.75
2019-02-19T19:32:51.381Z,94227.36
2019-02-19T19:35:19.287Z,94227.22
2019-02-19T19:37:47.187Z,94226.24
2019-02-19T19:40:15.094Z,94227.88
2019-02-19T19:42:42.991Z,94229.52
2019-02-19T19:45:11.083Z,94233.73
2019-02-19T19:47:38.969Z,94238.17
2019-02-19T19:50:07.462Z,94236.70
2019-02-19T19:52:35.347Z,94236.70
2019-02-19T19:55:03.639Z,94233.75
2019-02-19T19:57:31.683Z,94222.48
2019-02-19T19:59:59.561Z,94234.75
2019-02-19T20:02:27.465Z,94234.45
2019-02-19T20:04:55.360Z,94241.31
2019-02-19T20:07:23.236Z,94241.51
2019-02-19T20:09:51.142Z,94246.23
2019-02-19T20:12:19.015Z,94255.71
2019-02-19T20:14:47.008Z,94259.95
2019-02-19T20:17:14.942Z,94262.22
2019-02-19T20:19:43.081Z,94264.52
2019-02-19T20:22:10.964Z,94267.14
2019-02-19T20:24:38.902Z,94265.85
2019-02-19T20:27:06.845Z,94263.23
2019-02-19T20:29:34.749Z,94265.87
2019-02-19T20:32:02.703Z,94260.64
2019-02-19T20:34:30.672Z,94259.66
2019-02-19T20:36:58.582Z,94264.25
2019-02-19T20:39:26.443Z,94267.68
2019-02-19T20:41:54.359Z,94264.91
2019-02-19T20:44:22.341Z,94265.58
2019-02-19T20:46:50.312Z,94263.30
2019-02-19T20:49:18.267Z,94266.23
2019-02-19T20:51:46.123Z,94265.58
2019-02-19T20:54:14.075Z,94265.91
2019-02-19T20:56:42.319Z,94268.86
2019-02-19T20:59:10.231Z,94273.10
2019-02-19T21:01:38.097Z,94277.03
2019-02-19T21:04:06.223Z,94278.64
2019-02-19T21:06:34.120Z,94277.68
2019-02-19T21:09:02.186Z,94282.23
2019-02-19T21:11:30.157Z,94283.36
2019-02-19T21:13:58.370Z,94283.53
2019-02-19T21:16:26.249Z,94286.48
2019-02-19T21:18:54.135Z,94294.94
2019-02-19T21:21:22.057Z,94292.34
2019-02-19T21:23:49.924Z,94297.22
2019-02-19T21:26:18.751Z,94297.22
2019-02-19T21:28:46.784Z,94292.64
2019-02-19T21:31:14.743Z,94291.67
2019-02-19T21:33:42.714Z,94288.40
2019-02-19T21:36:10.625Z,94287.77
2019-02-19T21:38:38.571Z,94285.80
2019-02-19T21:41:07.768Z,94281.22
2019-02-19T21:43:36.045Z,94282.49
2019-02-19T21:46:03.923Z,94286.08
2019-02-19T21:48:31.836Z,94283.09
2019-02-19T21:50:59.661Z,94284.73
2019-02-19T21:53:27.567Z,94289.02
2019-02-19T21:55:55.532Z,94288.98
2019-02-19T21:58:23.442Z,94290.58
2019-02-19T22:00:51.331Z,94286.48
2019-02-19T22:03:19.262Z,94285.26
2019-02-19T22:05:47.135Z,94287.81
2019-02-19T22:08:15.022Z,94280.68
2019-02-19T22:10:42.911Z,94281.35
2019-02-19T22:13:10.828Z,94282.04
2019-02-19T22:15:38.694Z,94286.38
2019-02-19T22:18:06.587Z,94290.88
2019-02-19T22:20:49.025Z,94291.45
2019-02-19T22:23:16.962Z,94289.17
2019-02-19T22:25:44.775Z,94298.04
2019-02-19T22:28:12.686Z,94290.27
2019-02-19T22:30:40.583Z,94296.03
2019-02-19T22:33:08.458Z,94294.06
2019-02-19T22:35:36.332Z,94297.34
2019-02-19T22:38:04.196Z,94295.47
2019-02-19T22:40:32.106Z,94301.03
2019-02-19T22:42:59.986Z,94300.89
2019-02-19T22:45:27.893Z,94303.16
2019-02-19T22:47:55.735Z,94305.70
2019-02-19T22:50:23.607Z,94298.80
2019-02-19T22:52:51.476Z,94296.59
2019-02-19T22:55:31.349Z,94301.72
2019-02-19T22:57:59.176Z,94298.28
2019-02-19T23:00:57.845Z,94296.15
2019-02-19T23:03:26.179Z,94289.04
2019-02-19T23:05:54.223Z,94291.64
2019-02-19T23:08:22.119Z,94297.95
2019-02-19T23:10:49.972Z,94299.16
2019-02-19T23:13:17.858Z,94293.60
2019-02-19T23:15:45.706Z,94296.47
2019-02-19T23:18:13.546Z,94291.84
2019-02-19T23:20:41.506Z,94288.80
2019-02-19T23:23:09.347Z,94294.75
2019-02-19T23:25:37.210Z,94299.89
2019-02-19T23:28:05.091Z,94299.52
2019-02-19T23:30:33.764Z,94301.34
2019-02-19T23:33:01.676Z,94299.80
2019-02-19T23:35:49.129Z,94300.45
2019-02-19T23:38:17.010Z,94299.08
2019-02-19T23:40:44.829Z,94299.73
2019-02-19T23:43:12.664Z,94295.16
2019-02-19T23:45:40.476Z,94297.72
2019-02-19T23:48:08.349Z,94299.84
2019-02-19T23:50:36.187Z,94298.51
2019-02-19T23:53:04.042Z,94305.81
2019-02-19T23:55:31.968Z,94299.14
2019-02-19T23:58:00.204Z,94305.13
